Huvudsida
METAR-TAF:

METAR-TAF

Flygplatser :

Al Khardj, Saudiarabien

latitud: 24-03-19N, longitud: 047-33-49E, höjd: 503 m

Aktuellt väderrapport

Denna rapport gjordes för 1 timme och 9 minuter sedan, klockan 07:00 UTC
Vind 15 kt från sydost
Temperatur 22°C
Fuktighet 29%
Tryck 1023 hPa
Sikt 10 km eller mer
Inga moln under 1 500 m eller inga cumulonimbus

METAR: OEKJ 220700Z 13015KT CAVOK 22/03 Q1023

Tid: 11:09 (08:09 UTC)

Väderprognos

Denna rapport gjordes för 9 timmar och 9 minuter sedan, klockan 23:00 UTC
Prognos gäller från 22 kl. 00 UTC till 23 kl. 06 UTC
Vind 3 kt varierande vindriktning
Sikt: 8000 m
Blir
från 22 kl. 06 UTC till 22 kl. 08 UTC
Vind 8 kt från sydväst i byarna ända upp till 18 kt
Temporärt
från 22 kl. 06 UTC till 22 kl. 16 UTC
Sikt: 3000 m
utbrett stoft, högt damm drev
Blir
från 22 kl. 18 UTC till 22 kl. 20 UTC
Vind 3 kt varierande vindriktning

TAF: OEKJ 212300Z 2200/2306 VRB03KT 8000 NSC BECMG 2206/2208 22008G18KT TEMPO 2206/2216 3000 DU BLDU BECMG 2218/2220 VRB03KT

Aktuella väderrapporter och prognoser från 4000 flygplatser (METAR- och TAF-rapporter).

De tillgängliga stationerna syns som gula och röda prickar på kartan.

För musen över prickarna för att se namnen på stationerna.

Klicka sedan för att få väderrapporter och prognoser.

För att ändra kartan: Klicka på de gröna knapparna med ett svart kors på för att zooma in; den gröna knappen med ett streck på för att zooma ut; eller på de gröna pilarna för angränsande kartor.


METAR-TAF: